Time;durP1;ratioP1;P1;durP2;ratioP2;P2;SDS_P1;SDS_P2;PMS_P1;PMS_P2;Temp;Humidity;BMP_temperature;BMP_pressure;BME280_temperature;BME280_humidity;BME280_pressure;Samples;Min_cycle;Max_cycle;Signal;HPM_P1;HPM_P2
2023/05/25 00:03:03;;;;;;;10.07;3.83;;;;;;;8.85;95.31;100385.38;12190012;19;20122;-81
2023/05/25 00:07:05;;;;;;;11.03;4.00;;;;;;;8.75;97.70;100382.28;12214142;19;20451;-81
2023/05/25 00:11:07;;;;;;;10.82;3.58;;;;;;;8.63;98.67;100380.25;12197035;19;20006;-81
2023/05/25 00:15:09;;;;;;;10.43;3.88;;;;;;;8.55;98.81;100374.19;12212427;19;20074;-81
2023/05/25 00:19:11;;;;;;;10.90;3.65;;;;;;;8.47;99.73;100368.97;12201898;19;20014;-81
2023/05/25 00:23:13;;;;;;;10.75;4.30;;;;;;;8.41;100.00;100365.19;12189248;19;20062;-79
2023/05/25 00:27:14;;;;;;;9.10;3.53;;;;;;;8.43;100.00;100363.09;12210589;19;20734;-79
2023/05/25 00:31:17;;;;;;;10.07;3.55;;;;;;;8.47;100.00;100360.72;12210964;19;20747;-78
2023/05/25 00:35:18;;;;;;;11.88;3.60;;;;;;;8.49;100.00;100373.19;12188556;19;20018;-79
2023/05/25 00:39:21;;;;;;;8.43;3.38;;;;;;;8.51;100.00;100367.47;12207821;19;20471;-78
2023/05/25 00:43:22;;;;;;;10.48;3.20;;;;;;;8.51;100.00;100376.56;12208796;19;20014;-79
2023/05/25 00:47:24;;;;;;;12.65;3.08;;;;;;;8.49;100.00;100384.16;12186786;19;20028;-78
2023/05/25 00:51:28;;;;;;;16.35;4.25;;;;;;;8.47;100.00;100377.22;12209609;19;20078;-81
2023/05/25 00:55:36;;;;;;;8.35;3.05;;;;;;;8.44;100.00;100378.47;12216621;19;20007;-79
2023/05/25 00:59:50;;;;;;;10.02;3.45;;;;;;;8.41;100.00;100382.50;12196484;19;20046;-81
2023/05/25 01:03:54;;;;;;;13.32;4.15;;;;;;;8.39;100.00;100372.84;12223656;19;20017;-79
2023/05/25 01:08:00;;;;;;;7.05;3.00;;;;;;;8.34;100.00;100386.34;12223713;19;20452;-81
2023/05/25 01:12:03;;;;;;;7.55;3.13;;;;;;;8.31;100.00;100395.03;12202001;19;20778;-81
2023/05/25 01:16:06;;;;;;;10.95;3.22;;;;;;;8.30;100.00;100393.31;12224056;19;20010;-81
2023/05/25 01:20:08;;;;;;;10.77;3.00;;;;;;;8.23;100.00;100396.97;12199345;19;20017;-80
2023/05/25 01:24:21;;;;;;;6.00;3.00;;;;;;;8.19;100.00;100397.63;12225242;19;20010;-81
2023/05/25 01:28:29;;;;;;;8.45;2.65;;;;;;;8.14;100.00;100398.28;12221378;19;20011;-80
2023/05/25 01:32:32;;;;;;;8.75;3.60;;;;;;;8.06;100.00;100389.47;12200549;19;20017;-78
2023/05/25 01:36:34;;;;;;;9.15;3.17;;;;;;;8.05;100.00;100388.63;12222928;19;20066;-78
2023/05/25 01:40:39;;;;;;;10.77;3.50;;;;;;;8.05;100.00;100388.63;12217810;19;20014;-78
2023/05/25 01:44:41;;;;;;;6.70;3.10;;;;;;;8.00;100.00;100396.66;12201421;19;20028;-78
2023/05/25 01:49:12;;;;;;;8.52;3.58;;;;;;;7.98;100.00;100401.53;12214602;19;20070;-80
2023/05/25 01:53:28;;;;;;;9.88;3.45;;;;;;;7.94;100.00;100397.53;12199746;19;20006;-80
2023/05/25 01:57:35;;;;;;;8.45;3.00;;;;;;;7.91;100.00;100404.34;12223854;19;20468;-81
2023/05/25 02:01:38;;;;;;;9.43;3.58;;;;;;;7.91;100.00;100403.47;12222469;19;20038;-80
2023/05/25 02:05:40;;;;;;;10.60;3.50;;;;;;;7.90;100.00;100410.84;12223212;19;20010;-81
2023/05/25 02:09:42;;;;;;;7.20;3.25;;;;;;;7.88;100.00;100412.13;12232528;19;20011;-81
2023/05/25 02:13:45;;;;;;;6.95;3.67;;;;;;;7.87;100.00;100403.06;12229413;19;20011;-80
2023/05/25 02:17:50;;;;;;;6.75;2.95;;;;;;;7.83;100.00;100399.09;12205193;19;20380;-81
2023/05/25 02:21:52;;;;;;;8.15;3.50;;;;;;;7.82;100.00;100386.41;12222194;19;20464;-80
2023/05/25 02:25:56;;;;;;;9.10;3.33;;;;;;;7.86;100.00;100392.31;12224089;19;20099;-79
2023/05/25 02:29:58;;;;;;;12.88;3.53;;;;;;;7.86;100.00;100389.56;12198567;19;20017;-80
2023/05/25 02:34:02;;;;;;;11.23;3.60;;;;;;;7.85;100.00;100388.75;12222598;19;20411;-80
2023/05/25 02:38:04;;;;;;;8.73;3.63;;;;;;;7.86;100.00;100381.34;12198830;19;20014;-79
2023/05/25 02:42:06;;;;;;;8.48;3.33;;;;;;;7.87;100.00;100383.00;12222472;19;20688;-79
2023/05/25 02:46:07;;;;;;;10.25;3.58;;;;;;;7.86;100.00;100382.19;12230296;19;20018;-80
2023/05/25 02:50:12;;;;;;;9.50;3.53;;;;;;;7.87;100.00;100385.75;12198814;19;20034;-80
2023/05/25 02:54:20;;;;;;;8.05;3.60;;;;;;;7.86;100.00;100390.41;12219902;19;20010;-80
2023/05/25 02:58:22;;;;;;;12.60;4.67;;;;;;;7.83;100.00;100390.84;12219220;19;20007;-79
2023/05/25 03:02:35;;;;;;;11.48;3.67;;;;;;;7.82;100.00;100391.06;12196189;19;20589;-78
2023/05/25 03:06:37;;;;;;;7.68;3.33;;;;;;;7.84;100.00;100391.69;12219106;19;20014;-79
2023/05/25 03:10:45;;;;;;;8.90;4.03;;;;;;;7.83;100.00;100385.38;12215209;19;20014;-80
2023/05/25 03:14:47;;;;;;;10.32;3.40;;;;;;;7.82;100.00;100391.06;12197716;19;20019;-80
2023/05/25 03:18:49;;;;;;;7.80;3.50;;;;;;;7.80;100.00;100391.28;12216455;19;20013;-79
2023/05/25 03:22:51;;;;;;;10.68;3.88;;;;;;;7.80;100.00;100393.19;12217119;19;20759;-79
2023/05/25 03:26:53;;;;;;;9.57;3.78;;;;;;;7.78;100.00;100393.41;12195446;19;20014;-79
2023/05/25 03:30:56;;;;;;;9.30;3.72;;;;;;;7.78;100.00;100406.28;12217713;19;20405;-79
2023/05/25 03:34:58;;;;;;;10.30;3.70;;;;;;;7.78;100.00;100401.63;12220978;19;20007;-79
2023/05/25 03:39:00;;;;;;;9.70;3.50;;;;;;;7.73;100.00;100402.28;12195718;19;20107;-79
2023/05/25 03:43:02;;;;;;;8.25;3.65;;;;;;;7.69;100.00;100416.66;12218118;19;20018;-80
2023/05/25 03:47:05;;;;;;;8.88;3.47;;;;;;;7.68;100.00;100413.06;12198362;19;20045;-79
2023/05/25 03:51:07;;;;;;;12.70;4.10;;;;;;;7.62;100.00;100405.69;12221715;19;20003;-80
2023/05/25 03:55:09;;;;;;;11.75;3.80;;;;;;;7.58;100.00;100407.16;12218708;19;20006;-80
2023/05/25 03:59:11;;;;;;;9.35;3.72;;;;;;;7.56;100.00;100408.47;12196697;19;20018;-79
2023/05/25 04:03:14;;;;;;;6.22;3.53;;;;;;;7.55;100.00;100415.81;12212962;19;20054;-79
2023/05/25 04:07:20;;;;;;;11.50;3.83;;;;;;;7.56;100.00;100423.03;12217353;19;20033;-79
2023/05/25 04:11:23;;;;;;;8.65;4.32;;;;;;;7.58;100.00;100434.59;12195844;19;20004;-79
2023/05/25 04:15:25;;;;;;;11.10;4.38;;;;;;;7.58;100.00;100437.34;12215239;19;20361;-80
2023/05/25 04:19:37;;;;;;;12.67;4.77;;;;;;;7.56;100.00;100431.25;12244158;19;20027;-81
2023/05/25 04:23:39;;;;;;;16.07;4.17;;;;;;;7.56;100.00;100444.13;12199135;19;20120;-80
2023/05/25 04:27:41;;;;;;;14.63;4.53;;;;;;;7.54;100.00;100444.31;12213596;19;20010;-79
2023/05/25 04:31:46;;;;;;;11.75;5.22;;;;;;;7.57;100.00;100443.06;12210461;19;20013;-80
2023/05/25 04:36:10;;;;;;;9.55;3.75;;;;;;;7.61;100.00;100450.63;12192865;19;20031;-80
2023/05/25 04:40:12;;;;;;;9.07;4.13;;;;;;;7.67;100.00;100444.28;12210921;19;20082;-80
2023/05/25 04:44:16;;;;;;;7.30;3.95;;;;;;;7.73;100.00;100450.81;12191198;19;20018;-80
2023/05/25 04:48:23;;;;;;;9.10;4.28;;;;;;;7.78;100.00;100456.50;12213120;19;20010;-80
2023/05/25 04:52:25;;;;;;;8.55;3.70;;;;;;;7.85;100.00;100459.22;12214086;19;20074;-81
2023/05/25 04:56:28;;;;;;;9.75;4.00;;;;;;;7.92;100.00;100460.06;12191913;19;20011;-81
2023/05/25 05:00:30;;;;;;;;;;;;;;;7.98;100.00;100473.75;12210950;19;20026;-80
2023/05/25 05:04:33;;;;;;;10.40;4.38;;;;;;;8.01;100.00;100483.44;12212650;19;19925;-81
2023/05/25 05:08:36;;;;;;;11.93;4.18;;;;;;;8.07;100.00;100484.47;12189038;19;20015;-79
2023/05/25 05:12:38;;;;;;;12.60;4.00;;;;;;;8.13;100.00;100489.94;12213473;19;20014;-81
2023/05/25 05:16:41;;;;;;;7.13;3.60;;;;;;;8.22;100.00;100499.63;12210893;19;20022;-81
2023/05/25 05:20:43;;;;;;;10.15;4.05;;;;;;;8.31;100.00;100496.63;12194567;19;20018;-81
2023/05/25 05:24:45;;;;;;;10.73;3.88;;;;;;;8.35;100.00;100500.63;12213246;19;20131;-80
2023/05/25 05:28:55;;;;;;;12.80;4.60;;;;;;;8.47;100.00;100511.78;12214221;19;20122;-81
2023/05/25 05:32:58;;;;;;;;;;;;;;;8.60;100.00;100506.25;12190078;19;20014;-81
2023/05/25 05:37:05;;;;;;;10.70;4.70;;;;;;;8.70;100.00;100508.50;12209916;19;19915;-81
2023/05/25 05:41:12;;;;;;;8.60;4.47;;;;;;;8.75;100.00;100506.78;12195810;19;20007;-80
2023/05/25 05:45:21;;;;;;;11.70;3.78;;;;;;;8.92;100.00;100509.81;12220234;19;19999;-80
2023/05/25 05:49:26;;;;;;;11.20;4.63;;;;;;;9.04;100.00;100507.19;12223583;19;20506;-79
2023/05/25 05:53:29;;;;;;;10.48;3.97;;;;;;;9.15;100.00;100513.91;12201356;19;20017;-80
2023/05/25 05:57:30;;;;;;;14.00;4.05;;;;;;;9.28;100.00;100513.78;12223174;19;20040;-80
2023/05/25 06:01:35;;;;;;;8.00;3.60;;;;;;;9.48;100.00;100519.13;12218760;19;20381;-80
2023/05/25 06:05:38;;;;;;;10.63;3.97;;;;;;;9.70;100.00;100514.06;12199783;19;20006;-80
2023/05/25 06:09:43;;;;;;;11.57;3.90;;;;;;;9.87;100.00;100523.38;12221517;19;20014;-80
2023/05/25 06:13:45;;;;;;;9.90;3.55;;;;;;;10.08;100.00;100532.28;12218786;19;20011;-80
2023/05/25 06:17:49;;;;;;;9.70;3.58;;;;;;;10.22;100.00;100534.66;12195877;19;20011;-79
2023/05/25 06:21:54;;;;;;;10.02;3.53;;;;;;;10.38;100.00;100533.22;12216789;19;20026;-79
2023/05/25 06:26:04;;;;;;;11.25;3.70;;;;;;;10.61;100.00;100523.38;12201864;19;20010;-79
2023/05/25 06:30:08;;;;;;;8.80;3.65;;;;;;;10.76;100.00;100523.81;12216551;19;20007;-79
2023/05/25 06:34:12;;;;;;;8.88;4.05;;;;;;;10.95;100.00;100525.44;12215228;19;20018;-81
2023/05/25 06:38:14;;;;;;;5.30;3.08;;;;;;;11.18;100.00;100523.81;12185421;19;20015;-81
2023/05/25 06:42:19;;;;;;;10.18;3.65;;;;;;;11.41;100.00;100523.84;12200307;19;20014;-79
2023/05/25 06:46:29;;;;;;;10.68;3.70;;;;;;;11.66;100.00;100525.59;12222289;19;20002;-79
2023/05/25 06:50:33;;;;;;;7.47;3.35;;;;;;;11.91;100.00;100516.22;12195463;19;20087;-81
2023/05/25 06:54:35;;;;;;;6.65;3.22;;;;;;;12.13;100.00;100520.03;12220265;19;20006;-81
2023/05/25 06:58:38;;;;;;;9.85;3.50;;;;;;;12.37;100.00;100526.34;12223233;19;20116;-80
2023/05/25 07:02:40;;;;;;;10.40;3.85;;;;;;;12.60;97.68;100530.13;12199071;19;20538;-80
2023/05/25 07:06:43;;;;;;;;;;;;;;;12.84;93.31;100539.19;12224398;19;20048;-81
2023/05/25 07:10:45;;;;;;;6.93;2.77;;;;;;;13.08;91.75;100537.97;12222148;19;20312;-81
2023/05/25 07:14:50;;;;;;;8.65;3.40;;;;;;;13.31;89.53;100539.81;12201334;19;20250;-79
2023/05/25 07:18:53;;;;;;;7.47;3.30;;;;;;;13.64;88.02;100518.75;12223767;19;20046;-80
2023/05/25 07:22:55;;;;;;;8.57;2.95;;;;;;;13.90;86.37;100533.84;12221800;19;20014;-79
2023/05/25 07:27:00;;;;;;;7.97;3.35;;;;;;;14.07;82.55;100523.56;12202511;19;20013;-79
2023/05/25 07:31:02;;;;;;;6.97;3.58;;;;;;;14.32;83.93;100530.53;12213064;19;20015;-78
2023/05/25 07:35:04;;;;;;;8.82;3.17;;;;;;;14.54;81.55;100533.34;12186004;19;20030;-78
2023/05/25 07:39:10;;;;;;;6.03;3.17;;;;;;;14.71;77.51;100536.03;12214143;19;20014;-77
2023/05/25 07:43:13;;;;;;;6.95;2.90;;;;;;;14.72;77.53;100535.81;12230623;19;20611;-80
2023/05/25 07:47:16;;;;;;;10.00;3.78;;;;;;;14.94;77.82;100538.53;12230981;19;20021;-81
2023/05/25 07:51:18;;;;;;;8.55;3.85;;;;;;;15.20;77.04;100536.00;12237038;19;20011;-81
2023/05/25 07:55:21;;;;;;;7.45;3.58;;;;;;;15.27;73.61;100542.19;12231428;19;20089;-81
2023/05/25 07:59:26;;;;;;;9.38;3.65;;;;;;;15.48;75.11;100546.00;12199102;19;20029;-79
2023/05/25 08:03:32;;;;;;;11.50;3.72;;;;;;;15.59;72.98;100549.69;12217625;19;20023;-81
2023/05/25 08:07:49;;;;;;;13.25;4.30;;;;;;;15.67;69.99;100549.19;12218213;19;20467;-78
2023/05/25 08:11:53;;;;;;;11.15;3.70;;;;;;;15.69;72.76;100536.75;12189991;19;20800;-77
2023/05/25 08:16:13;;;;;;;16.52;4.47;;;;;;;15.93;70.91;100537.19;12213385;19;20082;-79
2023/05/25 08:20:18;;;;;;;11.27;4.43;;;;;;;16.09;69.39;100531.72;12192753;19;20010;-77
2023/05/25 08:24:21;;;;;;;;;;;;;;;16.17;70.29;100529.28;12211608;19;20013;-77
2023/05/25 08:28:23;;;;;;;8.27;4.07;;;;;;;16.49;69.10;100530.28;12212225;19;19906;-77
2023/05/25 08:32:35;;;;;;;14.02;4.20;;;;;;;16.74;68.00;100537.88;12194105;19;20027;-80
2023/05/25 08:36:37;;;;;;;10.23;4.25;;;;;;;16.81;66.66;100533.75;12213811;19;20094;-80
2023/05/25 08:40:41;;;;;;;8.45;3.30;;;;;;;17.02;66.56;100539.38;12212522;19;20078;-80
2023/05/25 08:44:45;;;;;;;7.28;3.15;;;;;;;17.27;65.22;100536.63;12188241;19;20006;-82
2023/05/25 08:48:50;;;;;;;8.70;4.03;;;;;;;17.46;65.38;100534.16;12213301;19;20010;-79
2023/05/25 08:52:56;;;;;;;10.98;3.78;;;;;;;17.77;63.63;100540.56;12214505;19;20017;-79
2023/05/25 08:57:12;;;;;;;9.68;3.35;;;;;;;17.90;60.99;100528.00;12197495;19;20510;-78
2023/05/25 09:01:18;;;;;;;8.52;3.38;;;;;;;17.94;59.78;100540.28;12216529;19;20020;-79
2023/05/25 09:05:23;;;;;;;10.38;4.07;;;;;;;18.08;60.05;100537.72;12196868;19;20023;-80
2023/05/25 09:09:28;;;;;;;7.63;3.83;;;;;;;18.12;57.79;100536.06;12212064;19;20050;-81
2023/05/25 09:13:33;;;;;;;8.57;3.47;;;;;;;18.12;54.99;100547.22;12209768;19;20023;-80
2023/05/25 09:17:40;;;;;;;11.50;3.33;;;;;;;18.31;54.92;100530.72;12197217;19;20033;-80
2023/05/25 09:21:43;;;;;;;14.17;5.13;;;;;;;18.43;54.94;100535.97;12219914;19;20491;-80
2023/05/25 09:25:46;;;;;;;7.85;4.15;;;;;;;18.58;55.17;100540.66;12220961;19;20011;-82
2023/05/25 09:29:49;;;;;;;9.98;3.75;;;;;;;18.66;52.71;100532.53;12199516;19;20007;-80
2023/05/25 09:33:58;;;;;;;7.30;3.80;;;;;;;18.72;54.15;100538.09;12220875;19;20014;-81
2023/05/25 09:38:01;;;;;;;10.85;4.18;;;;;;;19.08;53.80;100539.59;12215289;19;20352;-80
2023/05/25 09:42:05;;;;;;;12.10;3.67;;;;;;;19.29;51.46;100547.84;12220918;19;20376;-81
2023/05/25 09:46:07;;;;;;;;;;;;;;;19.26;51.23;100543.66;12224116;19;20021;-82
2023/05/25 09:50:10;;;;;;;9.52;3.30;;;;;;;19.46;50.76;100539.88;12197967;19;20532;-81
2023/05/25 09:54:14;;;;;;;6.82;3.05;;;;;;;19.40;48.12;100538.25;12216574;19;20041;-82
2023/05/25 09:58:16;;;;;;;6.60;2.87;;;;;;;19.56;46.35;100542.59;12219319;19;20051;-83
2023/05/25 10:02:18;;;;;;;9.35;3.20;;;;;;;19.56;48.04;100544.56;12198676;19;20024;-82
2023/05/25 10:06:22;;;;;;;7.00;3.30;;;;;;;19.81;48.78;100546.34;12216138;19;20205;-82
2023/05/25 10:10:27;;;;;;;6.93;2.88;;;;;;;20.06;47.06;100558.41;12216501;19;20066;-81
2023/05/25 10:14:34;;;;;;;10.73;3.83;;;;;;;20.20;45.08;100545.41;12188269;19;20025;-81
2023/05/25 10:18:47;;;;;;;8.05;2.95;;;;;;;20.36;45.52;100546.88;12216146;19;20461;-81
2023/05/25 10:23:10;;;;;;;9.85;3.40;;;;;;;20.53;46.11;100551.22;12214096;19;20371;-82
2023/05/25 10:27:18;;;;;;;5.13;2.93;;;;;;;20.60;45.77;100546.06;12192456;19;20046;-80
2023/05/25 10:31:42;;;;;;;9.32;2.53;;;;;;;20.67;41.41;100539.00;12214315;19;20271;-82
2023/05/25 10:35:45;;;;;;;5.03;2.38;;;;;;;20.71;39.81;100544.81;12193222;19;20090;-80
2023/05/25 10:40:25;;;;;;;4.22;2.42;;;;;;;20.97;38.40;100541.66;12213202;19;20031;-81
2023/05/25 10:44:34;;;;;;;5.97;2.45;;;;;;;21.05;41.60;100538.19;12209491;19;20002;-80
2023/05/25 10:49:01;;;;;;;10.60;3.30;;;;;;;21.26;40.00;100531.13;12215891;19;20519;-81
2023/05/25 10:53:15;;;;;;;7.15;2.72;;;;;;;21.28;40.66;100523.25;12210884;19;20021;-82
2023/05/25 10:57:22;;;;;;;8.10;3.30;;;;;;;21.56;41.47;100512.19;12193074;19;20015;-82
2023/05/25 11:01:25;;;;;;;6.70;3.92;;;;;;;21.54;43.64;100518.13;12210747;19;20019;-81
2023/05/25 11:05:30;;;;;;;8.30;3.53;;;;;;;21.93;44.65;100527.28;12191792;19;20018;-80
2023/05/25 11:10:06;;;;;;;7.20;4.25;;;;;;;22.31;42.80;100516.75;12213384;19;20015;-81
2023/05/25 11:14:28;;;;;;;7.50;3.42;;;;;;;22.34;41.54;100506.84;12190730;19;20007;-83
2023/05/25 11:18:58;;;;;;;9.27;3.90;;;;;;;22.37;40.83;100514.63;12212840;19;20018;-82
2023/05/25 11:23:25;;;;;;;10.85;3.72;;;;;;;22.21;41.22;100508.50;12211087;19;20070;-83
2023/05/25 11:27:45;;;;;;;9.30;3.72;;;;;;;22.28;42.46;100504.16;12215077;19;20026;-82
2023/05/25 11:31:56;;;;;;;8.73;3.58;;;;;;;22.43;41.37;100493.75;12214442;19;20039;-82
2023/05/25 11:36:14;;;;;;;5.80;3.45;;;;;;;22.49;41.90;100498.13;12194695;19;20019;-81
2023/05/25 11:40:16;;;;;;;8.70;3.50;;;;;;;22.71;41.21;100491.75;12211196;19;20070;-82
2023/05/25 11:44:29;;;;;;;9.45;4.15;;;;;;;23.02;40.50;100491.06;12190188;19;20006;-82
2023/05/25 11:48:35;;;;;;;7.93;3.28;;;;;;;23.41;41.58;100480.00;12208189;19;20491;-81
2023/05/25 11:52:40;;;;;;;8.82;3.55;;;;;;;23.99;39.46;100483.03;12207250;19;20007;-80
2023/05/25 11:56:43;;;;;;;6.28;3.58;;;;;;;24.10;38.47;100467.50;12185213;19;20421;-81
2023/05/25 12:00:54;;;;;;;9.20;3.20;;;;;;;24.13;37.02;100477.31;12213201;19;20024;-79
2023/05/25 12:05:06;;;;;;;9.55;3.45;;;;;;;24.40;36.76;100482.69;12213231;19;20010;-81
2023/05/25 12:09:31;;;;;;;6.60;2.88;;;;;;;24.47;35.36;100480.25;12187816;19;20021;-81
2023/05/25 12:13:54;;;;;;;6.18;3.17;;;;;;;24.84;33.54;100468.72;12212045;19;20098;-83
2023/05/25 12:18:14;;;;;;;10.32;4.93;;;;;;;25.49;34.16;100473.38;12190307;19;20014;-82
2023/05/25 12:23:30;;;;;;;10.60;3.50;;;;;;;26.16;32.63;100471.91;12228126;19;20003;-81
2023/05/25 12:28:05;;;;;;;11.52;3.63;;;;;;;27.07;31.32;100451.72;12207197;19;20007;-83
2023/05/25 12:32:19;;;;;;;7.18;3.13;;;;;;;28.24;30.03;100448.72;12206446;19;20051;-83
2023/05/25 12:36:41;;;;;;;6.20;3.38;;;;;;;29.08;28.19;100449.00;12211392;19;20019;-83
2023/05/25 12:40:43;;;;;;;7.63;3.10;;;;;;;29.78;27.39;100454.28;12213850;19;20032;-80
2023/05/25 12:44:53;;;;;;;5.63;3.63;;;;;;;29.87;25.44;100439.91;12192830;19;20007;-84
2023/05/25 12:49:00;;;;;;;6.20;3.63;;;;;;;30.88;24.72;100447.72;12219819;19;20119;-84
2023/05/25 12:53:03;;;;;;;5.25;3.47;;;;;;;31.55;23.87;100433.25;12208196;19;20010;-82
2023/05/25 12:57:06;;;;;;;7.50;4.00;;;;;;;32.10;22.40;100427.38;12222050;19;20010;-84
2023/05/25 13:01:08;;;;;;;7.45;3.90;;;;;;;31.52;22.64;100431.16;12223826;19;20514;-83
2023/05/25 13:05:21;;;;;;;8.02;3.80;;;;;;;32.06;22.88;100434.22;12214014;19;20372;-84
2023/05/25 13:09:27;;;;;;;6.00;3.40;;;;;;;32.43;21.90;100417.31;12228612;19;22367;-83
2023/05/25 13:13:29;;;;;;;7.68;4.50;;;;;;;32.72;21.60;100423.47;12226165;19;20472;-87
2023/05/25 13:17:34;;;;;;;6.80;3.88;;;;;;;32.93;21.75;100420.94;12204524;19;20014;-81
2023/05/25 13:21:36;;;;;;;8.85;3.92;;;;;;;33.30;21.22;100418.16;12238547;19;20010;-85
2023/05/25 13:25:41;;;;;;;8.25;3.63;;;;;;;34.00;20.96;100421.34;12244728;19;20002;-82
2023/05/25 13:29:44;;;;;;;5.78;3.42;;;;;;;34.36;21.25;100413.09;12206772;19;20010;-82
2023/05/25 13:33:45;;;;;;;8.80;4.00;;;;;;;34.58;20.79;100414.91;12229690;19;20090;-81
2023/05/25 13:37:48;;;;;;;8.85;4.10;;;;;;;34.70;20.61;100393.72;12226841;19;20011;-82
2023/05/25 13:47:20;;;;;;;6.07;3.63;;;;;;;34.92;20.48;100391.78;12206009;19;20013;-82
2023/05/25 13:56:12;;;;;;;17.73;4.78;;;;;;;36.07;19.59;100392.13;12201082;19;20018;-82
2023/05/25 14:00:15;;;;;;;7.38;4.30;;;;;;;36.10;20.74;100391.31;12220078;19;20029;-82
2023/05/25 14:04:22;;;;;;;5.50;4.00;;;;;;;36.08;20.64;100388.03;12220125;19;20632;-81
2023/05/25 14:08:23;;;;;;;12.50;3.90;;;;;;;35.71;20.47;100375.69;12196239;19;20129;-81
2023/05/25 14:12:27;;;;;;;6.28;4.18;;;;;;;36.37;20.25;100380.22;12217458;19;20384;-81
2023/05/25 14:16:29;;;;;;;4.45;3.55;;;;;;;36.37;20.56;100383.06;12219630;19;20357;-81
2023/05/25 14:20:35;;;;;;;5.78;3.80;;;;;;;36.91;19.87;100375.97;12192317;19;20011;-81
2023/05/25 14:24:38;;;;;;;8.88;4.35;;;;;;;36.85;20.09;100371.88;12213182;19;20011;-83
2023/05/25 14:29:12;;;;;;;6.55;4.28;;;;;;;36.70;20.17;100371.13;12192424;19;20041;-82
2023/05/25 14:33:15;;;;;;;6.55;4.05;;;;;;;36.70;20.28;100374.00;12193047;19;20033;-81
2023/05/25 14:37:26;;;;;;;7.10;3.80;;;;;;;36.91;20.01;100361.59;12206613;19;20550;-81
2023/05/25 14:41:30;;;;;;;6.47;4.25;;;;;;;36.02;20.85;100378.97;12189143;19;20074;-78
2023/05/25 14:45:32;;;;;;;6.68;4.45;;;;;;;33.41;23.25;100369.72;12213031;19;20011;-80
2023/05/25 14:49:34;;;;;;;8.75;4.80;;;;;;;31.48;25.10;100369.66;12211206;19;20036;-77
2023/05/25 14:53:38;;;;;;;7.13;4.38;;;;;;;29.92;26.70;100363.72;12191880;19;20078;-79
2023/05/25 14:57:43;;;;;;;7.88;4.22;;;;;;;29.57;26.57;100374.13;12210896;19;20018;-81
2023/05/25 15:01:45;;;;;;;8.07;4.53;;;;;;;29.60;26.84;100370.56;12216190;19;20464;-80
2023/05/25 15:05:48;;;;;;;8.98;4.25;;;;;;;28.69;28.78;100380.53;12196679;19;20357;-81
2023/05/25 15:09:51;;;;;;;9.90;5.93;;;;;;;30.02;28.10;100376.56;12218993;19;20010;-80
2023/05/25 15:13:52;;;;;;;8.15;4.60;;;;;;;32.18;25.90;100369.25;12218106;19;20013;-81
2023/05/25 15:17:55;;;;;;;6.63;4.45;;;;;;;32.56;25.18;100373.09;12195308;19;20033;-81
2023/05/25 15:21:57;;;;;;;8.80;4.43;;;;;;;30.57;27.39;100370.97;12218555;19;20011;-81
2023/05/25 15:26:03;;;;;;;8.55;4.95;;;;;;;28.81;29.58;100376.84;12215877;19;20010;-82
2023/05/25 15:30:06;;;;;;;10.00;5.03;;;;;;;27.48;31.06;100372.47;12192896;19;20380;-80
2023/05/25 15:34:09;;;;;;;8.73;4.75;;;;;;;26.20;32.59;100374.00;12218110;19;20081;-79
2023/05/25 15:38:13;;;;;;;7.90;4.78;;;;;;;25.26;34.16;100373.22;12198307;19;20014;-81
2023/05/25 15:42:15;;;;;;;11.13;5.18;;;;;;;24.65;35.75;100364.78;12216800;19;20074;-82
2023/05/25 15:46:17;;;;;;;9.57;5.10;;;;;;;24.06;36.60;100362.31;12214752;19;20078;-77
2023/05/25 15:50:20;;;;;;;;;;;;;;;23.73;37.58;100368.34;12192329;19;20017;-80
2023/05/25 15:54:24;;;;;;;10.10;5.18;;;;;;;23.33;39.01;100378.72;12216551;19;19918;-82
2023/05/25 15:58:30;;;;;;;9.65;5.32;;;;;;;22.98;39.29;100367.22;12211423;19;20024;-82
2023/05/25 16:02:32;;;;;;;9.27;5.18;;;;;;;22.90;40.07;100366.00;12194427;19;20586;-83
2023/05/25 16:06:35;;;;;;;10.17;4.37;;;;;;;22.62;41.16;100356.00;12214802;19;20379;-79
2023/05/25 16:10:37;;;;;;;10.20;5.47;;;;;;;22.42;41.65;100363.75;12213616;19;20239;-83
2023/05/25 16:14:39;;;;;;;8.97;5.37;;;;;;;22.46;41.58;100372.38;12190754;19;20029;-82
2023/05/25 16:18:41;;;;;;;10.77;5.83;;;;;;;22.39;41.95;100367.19;12212165;19;20024;-84
2023/05/25 16:22:43;;;;;;;10.77;6.13;;;;;;;22.39;42.70;100370.00;12211259;19;20622;-82
2023/05/25 16:26:46;;;;;;;8.40;4.65;;;;;;;22.39;42.31;100366.34;12085960;19;206138;-81
2023/05/25 16:30:49;;;;;;;14.50;5.30;;;;;;;22.36;42.92;100373.44;12211765;19;20019;-84
2023/05/25 16:34:51;;;;;;;13.20;5.70;;;;;;;22.20;43.48;100372.94;12210246;19;20010;-83
2023/05/25 16:38:54;;;;;;;10.85;5.75;;;;;;;22.04;44.69;100368.75;12183035;19;20019;-82
2023/05/25 16:42:55;;;;;;;9.43;5.20;;;;;;;21.92;44.93;100371.25;12204353;19;20015;-81
2023/05/25 16:46:58;;;;;;;12.07;5.57;;;;;;;21.96;45.09;100372.31;12209654;19;20040;-78
2023/05/25 16:51:00;;;;;;;12.15;6.20;;;;;;;21.74;44.94;100368.25;12184846;19;20082;-80
2023/05/25 16:55:02;;;;;;;16.60;6.00;;;;;;;21.62;45.60;100367.94;12207043;19;20019;-81
2023/05/25 16:59:05;;;;;;;9.68;4.82;;;;;;;21.57;45.98;100371.69;12181152;19;20014;-80
2023/05/25 17:03:07;;;;;;;10.18;5.65;;;;;;;21.47;46.31;100369.06;12204296;19;20011;-82
2023/05/25 17:07:11;;;;;;;12.82;5.68;;;;;;;21.48;46.42;100376.34;12208780;19;20007;-78
2023/05/25 17:11:14;;;;;;;9.90;5.15;;;;;;;21.34;46.29;100376.28;12187167;19;20014;-83
2023/05/25 17:15:17;;;;;;;10.82;5.88;;;;;;;21.25;46.60;100380.94;12206764;19;20499;-80
2023/05/25 17:19:19;;;;;;;10.80;5.38;;;;;;;21.35;46.99;100372.31;12205402;19;20013;-81
2023/05/25 17:23:21;;;;;;;12.23;4.93;;;;;;;21.44;45.99;100378.09;12182967;19;20021;-83
2023/05/25 17:27:23;;;;;;;11.80;5.43;;;;;;;21.22;47.08;100381.53;12205182;19;20125;-81
2023/05/25 17:31:26;;;;;;;9.43;5.18;;;;;;;21.03;47.06;100380.75;12207131;19;20036;-81
2023/05/25 17:35:28;;;;;;;9.10;4.75;;;;;;;20.94;47.52;100381.47;12178645;19;20003;-80
2023/05/25 17:39:32;;;;;;;9.13;4.80;;;;;;;21.03;47.52;100381.59;12209857;19;20010;-80
2023/05/25 17:43:33;;;;;;;9.40;5.17;;;;;;;20.95;47.28;100387.91;12211069;19;19998;-81
2023/05/25 17:47:36;;;;;;;11.63;5.53;;;;;;;20.79;47.14;100387.31;12192354;19;20017;-81
2023/05/25 17:51:38;;;;;;;11.02;5.43;;;;;;;20.71;47.89;100386.03;12212060;19;20085;-80
2023/05/25 17:55:40;;;;;;;8.77;5.73;;;;;;;20.61;48.15;100383.38;12212141;19;20023;-82
2023/05/25 17:59:42;;;;;;;11.70;5.60;;;;;;;20.58;48.27;100395.16;11978275;19;4118225;-80
2023/05/25 18:03:49;;;;;;;9.00;5.25;;;;;;;20.44;48.36;100394.25;12212288;19;20011;-80
2023/05/25 18:07:51;;;;;;;10.88;5.05;;;;;;;20.23;49.22;100400.13;12219005;19;20018;-80
2023/05/25 18:11:55;;;;;;;12.43;5.38;;;;;;;20.12;48.95;100390.19;12194689;19;20011;-81
2023/05/25 18:15:57;;;;;;;8.48;4.70;;;;;;;19.97;49.55;100391.22;12217912;19;20038;-80
2023/05/25 18:19:59;;;;;;;9.23;4.95;;;;;;;20.06;49.12;100391.38;12216361;19;20011;-81
2023/05/25 18:24:01;;;;;;;;;;;;;;;19.94;49.65;100394.59;12194564;19;20023;-82
2023/05/25 18:28:03;;;;;;;8.02;4.95;;;;;;;19.78;50.03;100393.09;12213991;19;20106;-81
2023/05/25 18:32:06;;;;;;;9.35;4.78;;;;;;;19.57;51.05;100401.72;12190537;19;20010;-79
2023/05/25 18:36:07;;;;;;;14.33;7.90;;;;;;;19.35;52.55;100393.81;12212297;19;20030;-81
2023/05/25 18:40:11;;;;;;;13.52;6.13;;;;;;;19.14;53.25;100403.50;12210748;19;20015;-81
2023/05/25 18:44:13;;;;;;;10.52;5.47;;;;;;;19.00;53.28;100406.13;12195098;19;20018;-81
2023/05/25 18:48:16;;;;;;;10.98;5.10;;;;;;;18.83;53.63;100412.13;12209804;19;20097;-80
2023/05/25 18:52:19;;;;;;;9.85;5.30;;;;;;;18.64;56.17;100406.34;12218069;19;20113;-80
2023/05/25 18:56:23;;;;;;;7.68;4.45;;;;;;;18.46;55.57;100418.19;12197572;19;20000;-80